sensor_id;sensor_type;location;lat;lon;timestamp;P1;durP1;ratioP1;P2;durP2;ratioP2
11618;SDS011;5865;48.776;9.280;2023-07-20T00:17:33;3.15;;;1.90;;
11618;SDS011;5865;48.776;9.280;2023-07-20T00:20:02;4.07;;;2.00;;
11618;SDS011;5865;48.776;9.280;2023-07-20T00:22:31;3.75;;;2.00;;
11618;SDS011;5865;48.776;9.280;2023-07-20T00:24:57;2.00;;;1.80;;
11618;SDS011;5865;48.776;9.280;2023-07-20T00:27:24;3.13;;;1.90;;
11618;SDS011;5865;48.776;9.280;2023-07-20T00:29:52;2.00;;;1.80;;
11618;SDS011;5865;48.776;9.280;2023-07-20T00:32:19;2.60;;;1.80;;
11618;SDS011;5865;48.776;9.280;2023-07-20T00:34:47;4.40;;;1.80;;
11618;SDS011;5865;48.776;9.280;2023-07-20T00:37:14;3.42;;;2.00;;
11618;SDS011;5865;48.776;9.280;2023-07-20T00:39:42;3.25;;;1.70;;
11618;SDS011;5865;48.776;9.280;2023-07-20T00:42:09;2.15;;;1.95;;
11618;SDS011;5865;48.776;9.280;2023-07-20T00:44:36;2.20;;;1.80;;
11618;SDS011;5865;48.776;9.280;2023-07-20T03:03:05;2.85;;;2.10;;
11618;SDS011;5865;48.776;9.280;2023-07-20T03:05:34;2.92;;;1.67;;
11618;SDS011;5865;48.776;9.280;2023-07-20T03:08:03;2.55;;;1.85;;
11618;SDS011;5865;48.776;9.280;2023-07-20T03:10:31;4.10;;;2.30;;
11618;SDS011;5865;48.776;9.280;2023-07-20T03:12:58;2.58;;;1.90;;
11618;SDS011;5865;48.776;9.280;2023-07-20T03:17:54;4.22;;;1.92;;
11618;SDS011;5865;48.776;9.280;2023-07-20T03:20:22;4.45;;;2.03;;
11618;SDS011;5865;48.776;9.280;2023-07-20T03:22:49;2.58;;;2.20;;
11618;SDS011;5865;48.776;9.280;2023-07-20T03:25:16;2.58;;;2.30;;
11618;SDS011;5865;48.776;9.280;2023-07-20T03:27:44;2.95;;;1.98;;
11618;SDS011;5865;48.776;9.280;2023-07-20T03:30:11;4.22;;;2.08;;
11618;SDS011;5865;48.776;9.280;2023-07-20T03:32:39;2.75;;;1.80;;
11618;SDS011;5865;48.776;9.280;2023-07-20T03:35:06;2.50;;;1.80;;
11618;SDS011;5865;48.776;9.280;2023-07-20T03:37:35;2.63;;;2.00;;
11618;SDS011;5865;48.776;9.280;2023-07-20T03:40:03;2.60;;;2.10;;
11618;SDS011;5865;48.776;9.280;2023-07-20T03:42:32;3.05;;;2.17;;
11618;SDS011;5865;48.776;9.280;2023-07-20T03:44:59;2.83;;;2.10;;
11618;SDS011;5865;48.776;9.280;2023-07-20T03:47:29;2.80;;;2.05;;
11618;SDS011;5865;48.776;9.280;2023-07-20T03:49:56;3.90;;;2.10;;
11618;SDS011;5865;48.776;9.280;2023-07-20T03:52:24;2.70;;;2.10;;
11618;SDS011;5865;48.776;9.280;2023-07-20T03:54:52;2.88;;;2.10;;
11618;SDS011;5865;48.776;9.280;2023-07-20T03:57:19;2.55;;;2.00;;
11618;SDS011;5865;48.776;9.280;2023-07-20T03:59:46;4.20;;;2.20;;
11618;SDS011;5865;48.776;9.280;2023-07-20T04:02:14;3.40;;;2.30;;
11618;SDS011;5865;48.776;9.280;2023-07-20T04:04:41;2.67;;;2.42;;
11618;SDS011;5865;48.776;9.280;2023-07-20T04:07:08;3.35;;;2.17;;
11618;SDS011;5865;48.776;9.280;2023-07-20T04:09:35;4.10;;;2.47;;
11618;SDS011;5865;48.776;9.280;2023-07-20T04:12:04;4.47;;;2.40;;
11618;SDS011;5865;48.776;9.280;2023-07-20T04:14:32;3.13;;;2.20;;
11618;SDS011;5865;48.776;9.280;2023-07-20T04:16:59;7.13;;;2.30;;
11618;SDS011;5865;48.776;9.280;2023-07-20T04:19:26;3.65;;;2.47;;
11618;SDS011;5865;48.776;9.280;2023-07-20T04:21:53;5.47;;;2.35;;
11618;SDS011;5865;48.776;9.280;2023-07-20T04:24:20;2.75;;;2.20;;
11618;SDS011;5865;48.776;9.280;2023-07-20T04:26:47;3.83;;;2.72;;
11618;SDS011;5865;48.776;9.280;2023-07-20T04:29:15;4.25;;;2.13;;
11618;SDS011;5865;48.776;9.280;2023-07-20T06:50:07;2.50;;;1.90;;
11618;SDS011;5865;48.776;9.280;2023-07-20T06:52:34;3.55;;;2.13;;
11618;SDS011;5865;48.776;9.280;2023-07-20T06:55:07;3.72;;;1.70;;
11618;SDS011;5865;48.776;9.280;2023-07-20T06:57:49;2.33;;;1.63;;
11618;SDS011;5865;48.776;9.280;2023-07-20T07:03:45;4.32;;;1.92;;
11618;SDS011;5865;48.776;9.280;2023-07-20T07:37:20;5.43;;;2.08;;
11618;SDS011;5865;48.776;9.280;2023-07-20T07:40:08;4.22;;;1.70;;
11618;SDS011;5865;48.776;9.280;2023-07-20T07:42:53;4.53;;;1.60;;
11618;SDS011;5865;48.776;9.280;2023-07-20T07:45:40;4.50;;;1.83;;
11618;SDS011;5865;48.776;9.280;2023-07-20T07:48:24;2.10;;;1.70;;
11618;SDS011;5865;48.776;9.280;2023-07-20T08:16:19;2.78;;;1.52;;
11618;SDS011;5865;48.776;9.280;2023-07-20T08:19:01;5.07;;;1.90;;
11618;SDS011;5865;48.776;9.280;2023-07-20T08:21:44;5.50;;;2.13;;
11618;SDS011;5865;48.776;9.280;2023-07-20T08:24:26;3.33;;;1.90;;
11618;SDS011;5865;48.776;9.280;2023-07-20T08:27:00;2.25;;;1.90;;
11618;SDS011;5865;48.776;9.280;2023-07-20T08:51:38;6.78;;;1.77;;
11618;SDS011;5865;48.776;9.280;2023-07-20T08:54:06;2.88;;;2.00;;
11618;SDS011;5865;48.776;9.280;2023-07-20T08:56:36;3.88;;;1.40;;
11618;SDS011;5865;48.776;9.280;2023-07-20T08:59:12;3.80;;;1.85;;
11618;SDS011;5865;48.776;9.280;2023-07-20T09:01:51;4.47;;;1.50;;
11618;SDS011;5865;48.776;9.280;2023-07-20T09:04:21;4.60;;;1.80;;
11618;SDS011;5865;48.776;9.280;2023-07-20T09:22:42;1.90;;;1.42;;
11618;SDS011;5865;48.776;9.280;2023-07-20T09:25:24;2.92;;;1.67;;
11618;SDS011;5865;48.776;9.280;2023-07-20T09:27:54;3.92;;;1.90;;
11618;SDS011;5865;48.776;9.280;2023-07-20T09:30:28;2.10;;;1.80;;
11618;SDS011;5865;48.776;9.280;2023-07-20T09:33:12;3.65;;;1.77;;
11618;SDS011;5865;48.776;9.280;2023-07-20T09:36:06;2.85;;;1.60;;
11618;SDS011;5865;48.776;9.280;2023-07-20T09:38:56;2.20;;;1.50;;
11618;SDS011;5865;48.776;9.280;2023-07-20T09:41:40;2.85;;;1.60;;
11618;SDS011;5865;48.776;9.280;2023-07-20T09:44:45;1.50;;;1.40;;
11618;SDS011;5865;48.776;9.280;2023-07-20T09:47:26;3.08;;;1.60;;
11618;SDS011;5865;48.776;9.280;2023-07-20T09:50:07;2.42;;;1.52;;
11618;SDS011;5865;48.776;9.280;2023-07-20T09:53:20;3.35;;;1.58;;
11618;SDS011;5865;48.776;9.280;2023-07-20T10:08:13;2.13;;;1.50;;
11618;SDS011;5865;48.776;9.280;2023-07-20T10:11:02;2.97;;;1.58;;
11618;SDS011;5865;48.776;9.280;2023-07-20T10:14:21;1.83;;;1.30;;
11618;SDS011;5865;48.776;9.280;2023-07-20T10:17:01;2.85;;;1.35;;
11618;SDS011;5865;48.776;9.280;2023-07-20T10:20:19;2.45;;;1.30;;
11618;SDS011;5865;48.776;9.280;2023-07-20T10:26:06;1.73;;;1.50;;
11618;SDS011;5865;48.776;9.280;2023-07-20T10:28:41;1.95;;;1.40;;
11618;SDS011;5865;48.776;9.280;2023-07-20T10:31:22;1.60;;;1.40;;
11618;SDS011;5865;48.776;9.280;2023-07-20T10:34:06;3.50;;;1.65;;
11618;SDS011;5865;48.776;9.280;2023-07-20T10:36:34;4.00;;;1.50;;
11618;SDS011;5865;48.776;9.280;2023-07-20T10:39:23;1.80;;;1.40;;
11618;SDS011;5865;48.776;9.280;2023-07-20T10:42:00;2.75;;;1.50;;
11618;SDS011;5865;48.776;9.280;2023-07-20T10:44:48;2.30;;;1.25;;
11618;SDS011;5865;48.776;9.280;2023-07-20T10:50:32;1.80;;;1.67;;
11618;SDS011;5865;48.776;9.280;2023-07-20T10:53:23;1.98;;;1.30;;
11618;SDS011;5865;48.776;9.280;2023-07-20T10:56:27;1.60;;;1.33;;
11618;SDS011;5865;48.776;9.280;2023-07-20T11:17:34;2.53;;;1.50;;
11618;SDS011;5865;48.776;9.280;2023-07-20T11:23:33;2.28;;;1.23;;
11618;SDS011;5865;48.776;9.280;2023-07-20T11:26:24;2.35;;;1.30;;
11618;SDS011;5865;48.776;9.280;2023-07-20T11:29:09;2.40;;;1.23;;
11618;SDS011;5865;48.776;9.280;2023-07-20T11:31:42;3.40;;;1.20;;
11618;SDS011;5865;48.776;9.280;2023-07-20T11:37:59;1.48;;;1.13;;
11618;SDS011;5865;48.776;9.280;2023-07-20T11:40:47;1.67;;;1.27;;
11618;SDS011;5865;48.776;9.280;2023-07-20T11:43:18;5.50;;;1.30;;
11618;SDS011;5865;48.776;9.280;2023-07-20T11:46:06;1.70;;;1.40;;
11618;SDS011;5865;48.776;9.280;2023-07-20T11:49:01;5.32;;;1.48;;
11618;SDS011;5865;48.776;9.280;2023-07-20T12:01:33;1.55;;;1.30;;
11618;SDS011;5865;48.776;9.280;2023-07-20T12:07:35;2.28;;;1.30;;
11618;SDS011;5865;48.776;9.280;2023-07-20T12:10:13;1.88;;;1.30;;
11618;SDS011;5865;48.776;9.280;2023-07-20T12:12:54;1.17;;;1.10;;
11618;SDS011;5865;48.776;9.280;2023-07-20T12:35:48;2.10;;;1.20;;
11618;SDS011;5865;48.776;9.280;2023-07-20T12:38:36;1.95;;;1.20;;
11618;SDS011;5865;48.776;9.280;2023-07-20T12:41:27;1.88;;;1.23;;
11618;SDS011;5865;48.776;9.280;2023-07-20T12:44:08;5.25;;;1.42;;
11618;SDS011;5865;48.776;9.280;2023-07-20T12:46:57;2.22;;;1.52;;
11618;SDS011;5865;48.776;9.280;2023-07-20T12:55:43;1.92;;;1.40;;
11618;SDS011;5865;48.776;9.280;2023-07-20T12:58:12;3.00;;;1.40;;
11618;SDS011;5865;48.776;9.280;2023-07-20T13:00:49;1.10;;;1.05;;
11618;SDS011;5865;48.776;9.280;2023-07-20T13:03:46;2.05;;;1.20;;
11618;SDS011;5865;48.776;9.280;2023-07-20T13:06:29;1.50;;;1.30;;
11618;SDS011;5865;48.776;9.280;2023-07-20T13:15:24;2.42;;;1.40;;
11618;SDS011;5865;48.776;9.280;2023-07-20T13:17:58;3.30;;;1.20;;
11618;SDS011;5865;48.776;9.280;2023-07-20T13:20:40;1.90;;;1.33;;
11618;SDS011;5865;48.776;9.280;2023-07-20T13:23:12;3.38;;;1.17;;
11618;SDS011;5865;48.776;9.280;2023-07-20T13:25:57;2.58;;;1.20;;
11618;SDS011;5865;48.776;9.280;2023-07-20T13:28:39;3.08;;;1.20;;
11618;SDS011;5865;48.776;9.280;2023-07-20T13:37:12;1.30;;;1.20;;
11618;SDS011;5865;48.776;9.280;2023-07-20T13:39:54;2.88;;;1.38;;
11618;SDS011;5865;48.776;9.280;2023-07-20T13:42:38;1.23;;;1.13;;
11618;SDS011;5865;48.776;9.280;2023-07-20T13:45:11;2.35;;;1.30;;
11618;SDS011;5865;48.776;9.280;2023-07-20T13:47:43;2.17;;;1.30;;
11618;SDS011;5865;48.776;9.280;2023-07-20T13:50:27;2.53;;;1.10;;
11618;SDS011;5865;48.776;9.280;2023-07-20T13:53:22;1.48;;;1.00;;
11618;SDS011;5865;48.776;9.280;2023-07-20T13:56:03;1.90;;;1.35;;
11618;SDS011;5865;48.776;9.280;2023-07-20T13:58:31;1.35;;;1.25;;
11618;SDS011;5865;48.776;9.280;2023-07-20T14:00:58;1.42;;;1.17;;
11618;SDS011;5865;48.776;9.280;2023-07-20T14:03:26;1.85;;;1.30;;
11618;SDS011;5865;48.776;9.280;2023-07-20T14:06:07;1.55;;;1.13;;
11618;SDS011;5865;48.776;9.280;2023-07-20T14:14:38;5.72;;;1.40;;
11618;SDS011;5865;48.776;9.280;2023-07-20T14:17:19;1.67;;;1.20;;
11618;SDS011;5865;48.776;9.280;2023-07-20T14:19:48;2.17;;;1.20;;
11618;SDS011;5865;48.776;9.280;2023-07-20T14:22:29;2.08;;;1.15;;
11618;SDS011;5865;48.776;9.280;2023-07-20T14:25:10;1.70;;;1.10;;
11618;SDS011;5865;48.776;9.280;2023-07-20T14:27:44;2.33;;;1.52;;
11618;SDS011;5865;48.776;9.280;2023-07-20T14:39:32;2.55;;;1.30;;
11618;SDS011;5865;48.776;9.280;2023-07-20T14:42:02;3.03;;;1.50;;
11618;SDS011;5865;48.776;9.280;2023-07-20T14:44:33;2.95;;;1.55;;
11618;SDS011;5865;48.776;9.280;2023-07-20T14:47:00;2.83;;;1.30;;
11618;SDS011;5865;48.776;9.280;2023-07-20T14:49:27;2.92;;;1.30;;
11618;SDS011;5865;48.776;9.280;2023-07-20T14:52:12;3.25;;;1.23;;
11618;SDS011;5865;48.776;9.280;2023-07-20T14:54:39;1.35;;;1.17;;
11618;SDS011;5865;48.776;9.280;2023-07-20T14:57:06;2.30;;;1.40;;
11618;SDS011;5865;48.776;9.280;2023-07-20T14:59:50;2.20;;;1.52;;
11618;SDS011;5865;48.776;9.280;2023-07-20T15:02:32;2.30;;;1.20;;
11618;SDS011;5865;48.776;9.280;2023-07-20T15:04:59;2.55;;;1.38;;
11618;SDS011;5865;48.776;9.280;2023-07-20T15:11:05;1.70;;;1.30;;
11618;SDS011;5865;48.776;9.280;2023-07-20T15:13:46;2.92;;;1.20;;
11618;SDS011;5865;48.776;9.280;2023-07-20T15:16:27;2.22;;;1.30;;
11618;SDS011;5865;48.776;9.280;2023-07-20T15:19:08;1.90;;;1.00;;
11618;SDS011;5865;48.776;9.280;2023-07-20T15:21:38;2.00;;;1.00;;
11618;SDS011;5865;48.776;9.280;2023-07-20T15:24:11;2.58;;;1.27;;
11618;SDS011;5865;48.776;9.280;2023-07-20T15:26:54;3.38;;;1.52;;
11618;SDS011;5865;48.776;9.280;2023-07-20T15:29:22;1.20;;;1.10;;
11618;SDS011;5865;48.776;9.280;2023-07-20T15:32:04;1.52;;;1.30;;
11618;SDS011;5865;48.776;9.280;2023-07-20T15:34:32;3.08;;;1.20;;
11618;SDS011;5865;48.776;9.280;2023-07-20T15:37:03;1.42;;;1.10;;
11618;SDS011;5865;48.776;9.280;2023-07-20T15:39:47;1.33;;;1.08;;
11618;SDS011;5865;48.776;9.280;2023-07-20T15:45:18;2.15;;;1.17;;
11618;SDS011;5865;48.776;9.280;2023-07-20T15:47:45;3.22;;;1.20;;
11618;SDS011;5865;48.776;9.280;2023-07-20T15:50:29;1.42;;;1.10;;
11618;SDS011;5865;48.776;9.280;2023-07-20T15:53:10;1.25;;;1.15;;
11618;SDS011;5865;48.776;9.280;2023-07-20T15:55:38;2.00;;;1.10;;
11618;SDS011;5865;48.776;9.280;2023-07-20T15:58:18;2.60;;;1.45;;
11618;SDS011;5865;48.776;9.280;2023-07-20T16:00:51;1.13;;;1.02;;
11618;SDS011;5865;48.776;9.280;2023-07-20T16:03:20;1.42;;;1.00;;
11618;SDS011;5865;48.776;9.280;2023-07-20T16:06:02;1.63;;;1.20;;
11618;SDS011;5865;48.776;9.280;2023-07-20T16:08:29;1.20;;;1.10;;
11618;SDS011;5865;48.776;9.280;2023-07-20T16:10:56;1.52;;;1.08;;
11618;SDS011;5865;48.776;9.280;2023-07-20T16:13:26;1.30;;;1.20;;
11618;SDS011;5865;48.776;9.280;2023-07-20T16:15:53;1.30;;;1.20;;
11618;SDS011;5865;48.776;9.280;2023-07-20T16:18:20;1.75;;;1.30;;
11618;SDS011;5865;48.776;9.280;2023-07-20T16:20:48;2.08;;;1.20;;
11618;SDS011;5865;48.776;9.280;2023-07-20T16:23:15;2.22;;;1.20;;
11618;SDS011;5865;48.776;9.280;2023-07-20T16:25:44;2.38;;;1.30;;
11618;SDS011;5865;48.776;9.280;2023-07-20T16:28:11;1.42;;;1.20;;
11618;SDS011;5865;48.776;9.280;2023-07-20T16:30:40;1.77;;;1.20;;
11618;SDS011;5865;48.776;9.280;2023-07-20T16:33:07;1.92;;;1.20;;
11618;SDS011;5865;48.776;9.280;2023-07-20T16:35:36;1.88;;;1.20;;
11618;SDS011;5865;48.776;9.280;2023-07-20T16:38:03;1.35;;;1.23;;
11618;SDS011;5865;48.776;9.280;2023-07-20T16:40:30;3.42;;;1.27;;
11618;SDS011;5865;48.776;9.280;2023-07-20T16:42:57;1.83;;;1.40;;
11618;SDS011;5865;48.776;9.280;2023-07-20T16:45:24;2.15;;;1.20;;
11618;SDS011;5865;48.776;9.280;2023-07-20T16:47:53;1.13;;;1.02;;
11618;SDS011;5865;48.776;9.280;2023-07-20T16:50:20;1.23;;;1.13;;
11618;SDS011;5865;48.776;9.280;2023-07-20T16:52:47;1.40;;;1.08;;
11618;SDS011;5865;48.776;9.280;2023-07-20T16:55:14;1.25;;;1.15;;
11618;SDS011;5865;48.776;9.280;2023-07-20T16:57:41;1.70;;;1.20;;
11618;SDS011;5865;48.776;9.280;2023-07-20T17:00:09;1.85;;;1.10;;
11618;SDS011;5865;48.776;9.280;2023-07-20T17:02:36;3.80;;;2.67;;
11618;SDS011;5865;48.776;9.280;2023-07-20T17:05:05;1.88;;;1.38;;
11618;SDS011;5865;48.776;9.280;2023-07-20T17:07:34;1.92;;;1.05;;
11618;SDS011;5865;48.776;9.280;2023-07-20T17:10:01;1.38;;;1.25;;
11618;SDS011;5865;48.776;9.280;2023-07-20T17:12:29;2.53;;;1.83;;
11618;SDS011;5865;48.776;9.280;2023-07-20T17:14:56;1.90;;;1.40;;
11618;SDS011;5865;48.776;9.280;2023-07-20T17:17:23;1.67;;;1.10;;
11618;SDS011;5865;48.776;9.280;2023-07-20T17:19:50;3.67;;;1.30;;
11618;SDS011;5865;48.776;9.280;2023-07-20T17:22:18;2.05;;;1.17;;
11618;SDS011;5865;48.776;9.280;2023-07-20T17:24:45;1.30;;;1.20;;
11618;SDS011;5865;48.776;9.280;2023-07-20T17:27:12;3.83;;;1.35;;
11618;SDS011;5865;48.776;9.280;2023-07-20T17:29:40;1.58;;;1.30;;
11618;SDS011;5865;48.776;9.280;2023-07-20T17:32:07;1.33;;;1.10;;
11618;SDS011;5865;48.776;9.280;2023-07-20T17:34:34;1.98;;;1.30;;
11618;SDS011;5865;48.776;9.280;2023-07-20T17:37:02;2.20;;;1.20;;
11618;SDS011;5865;48.776;9.280;2023-07-20T17:39:32;1.80;;;1.40;;
11618;SDS011;5865;48.776;9.280;2023-07-20T17:41:59;2.38;;;1.20;;
11618;SDS011;5865;48.776;9.280;2023-07-20T17:44:26;2.00;;;1.10;;
11618;SDS011;5865;48.776;9.280;2023-07-20T17:46:53;1.35;;;1.25;;
11618;SDS011;5865;48.776;9.280;2023-07-20T17:49:20;1.55;;;1.30;;
11618;SDS011;5865;48.776;9.280;2023-07-20T17:51:47;3.97;;;1.45;;
11618;SDS011;5865;48.776;9.280;2023-07-20T17:54:14;2.13;;;1.52;;
11618;SDS011;5865;48.776;9.280;2023-07-20T17:56:43;1.60;;;1.40;;
11618;SDS011;5865;48.776;9.280;2023-07-20T17:59:10;3.90;;;1.30;;
11618;SDS011;5865;48.776;9.280;2023-07-20T18:01:37;2.08;;;1.38;;
11618;SDS011;5865;48.776;9.280;2023-07-20T18:04:04;2.22;;;1.48;;
11618;SDS011;5865;48.776;9.280;2023-07-20T18:06:31;1.20;;;1.10;;
11618;SDS011;5865;48.776;9.280;2023-07-20T18:08:58;1.67;;;1.20;;
11618;SDS011;5865;48.776;9.280;2023-07-20T18:11:25;1.20;;;1.10;;
11618;SDS011;5865;48.776;9.280;2023-07-20T18:13:53;2.80;;;1.40;;
11618;SDS011;5865;48.776;9.280;2023-07-20T18:16:22;1.55;;;1.20;;
11618;SDS011;5865;48.776;9.280;2023-07-20T18:18:49;1.50;;;1.40;;
11618;SDS011;5865;48.776;9.280;2023-07-20T18:21:16;1.50;;;1.30;;
11618;SDS011;5865;48.776;9.280;2023-07-20T18:23:43;4.53;;;1.38;;
11618;SDS011;5865;48.776;9.280;2023-07-20T18:26:10;1.30;;;1.20;;
11618;SDS011;5865;48.776;9.280;2023-07-20T18:28:37;1.58;;;1.20;;
11618;SDS011;5865;48.776;9.280;2023-07-20T18:33:47;1.30;;;1.20;;
11618;SDS011;5865;48.776;9.280;2023-07-20T18:36:14;2.75;;;1.17;;
11618;SDS011;5865;48.776;9.280;2023-07-20T18:38:41;1.60;;;1.30;;
11618;SDS011;5865;48.776;9.280;2023-07-20T18:41:08;1.95;;;1.20;;
11618;SDS011;5865;48.776;9.280;2023-07-20T18:43:37;1.17;;;1.00;;
11618;SDS011;5865;48.776;9.280;2023-07-20T18:46:04;1.83;;;1.42;;
11618;SDS011;5865;48.776;9.280;2023-07-20T18:48:32;1.35;;;1.20;;
11618;SDS011;5865;48.776;9.280;2023-07-20T18:51:01;2.67;;;1.30;;
11618;SDS011;5865;48.776;9.280;2023-07-20T18:53:29;1.83;;;1.20;;
11618;SDS011;5865;48.776;9.280;2023-07-20T18:55:57;1.73;;;1.20;;
11618;SDS011;5865;48.776;9.280;2023-07-20T18:58:24;2.03;;;1.42;;
11618;SDS011;5865;48.776;9.280;2023-07-20T19:00:57;1.35;;;1.10;;
11618;SDS011;5865;48.776;9.280;2023-07-20T19:03:25;1.60;;;1.10;;
11618;SDS011;5865;48.776;9.280;2023-07-20T19:05:52;1.30;;;1.10;;
11618;SDS011;5865;48.776;9.280;2023-07-20T19:08:21;1.67;;;1.40;;
11618;SDS011;5865;48.776;9.280;2023-07-20T19:10:49;2.70;;;1.30;;
11618;SDS011;5865;48.776;9.280;2023-07-20T19:13:16;1.38;;;1.27;;
11618;SDS011;5865;48.776;9.280;2023-07-20T19:15:47;1.80;;;1.17;;
11618;SDS011;5865;48.776;9.280;2023-07-20T19:18:14;1.70;;;1.20;;
11618;SDS011;5865;48.776;9.280;2023-07-20T19:20:42;2.22;;;1.40;;
11618;SDS011;5865;48.776;9.280;2023-07-20T19:23:09;2.38;;;1.50;;
11618;SDS011;5865;48.776;9.280;2023-07-20T19:25:38;1.65;;;1.42;;
11618;SDS011;5865;48.776;9.280;2023-07-20T19:28:06;1.42;;;1.23;;
11618;SDS011;5865;48.776;9.280;2023-07-20T19:30:33;1.23;;;1.13;;
11618;SDS011;5865;48.776;9.280;2023-07-20T19:33:01;1.73;;;1.10;;
11618;SDS011;5865;48.776;9.280;2023-07-20T19:35:28;1.73;;;1.13;;
11618;SDS011;5865;48.776;9.280;2023-07-20T19:38:01;2.63;;;1.30;;
11618;SDS011;5865;48.776;9.280;2023-07-20T19:40:29;1.92;;;1.10;;
11618;SDS011;5865;48.776;9.280;2023-07-20T19:42:58;1.63;;;1.30;;
11618;SDS011;5865;48.776;9.280;2023-07-20T19:45:26;1.92;;;1.20;;
11618;SDS011;5865;48.776;9.280;2023-07-20T19:47:53;1.98;;;1.30;;
11618;SDS011;5865;48.776;9.280;2023-07-20T19:50:20;1.95;;;1.25;;
11618;SDS011;5865;48.776;9.280;2023-07-20T19:52:47;2.78;;;1.33;;
11618;SDS011;5865;48.776;9.280;2023-07-20T19:55:16;1.20;;;1.10;;
11618;SDS011;5865;48.776;9.280;2023-07-20T19:57:44;1.52;;;1.30;;
11618;SDS011;5865;48.776;9.280;2023-07-20T20:00:13;1.77;;;1.40;;
11618;SDS011;5865;48.776;9.280;2023-07-20T20:02:42;1.20;;;1.10;;
11618;SDS011;5865;48.776;9.280;2023-07-20T20:05:10;1.88;;;1.40;;
11618;SDS011;5865;48.776;9.280;2023-07-20T20:07:37;1.95;;;1.30;;
11618;SDS011;5865;48.776;9.280;2023-07-20T20:10:05;2.00;;;1.42;;
11618;SDS011;5865;48.776;9.280;2023-07-20T20:12:32;1.55;;;1.30;;
11618;SDS011;5865;48.776;9.280;2023-07-20T20:15:00;1.80;;;1.35;;
11618;SDS011;5865;48.776;9.280;2023-07-20T20:17:29;3.33;;;1.38;;
11618;SDS011;5865;48.776;9.280;2023-07-20T20:19:56;1.83;;;1.27;;
11618;SDS011;5865;48.776;9.280;2023-07-20T20:22:24;2.20;;;1.40;;
11618;SDS011;5865;48.776;9.280;2023-07-20T20:24:51;1.92;;;1.33;;
11618;SDS011;5865;48.776;9.280;2023-07-20T20:27:18;2.00;;;1.67;;
11618;SDS011;5865;48.776;9.280;2023-07-20T20:29:45;1.83;;;1.40;;
11618;SDS011;5865;48.776;9.280;2023-07-20T20:32:13;1.88;;;1.30;;
11618;SDS011;5865;48.776;9.280;2023-07-20T20:34:41;1.45;;;1.30;;
11618;SDS011;5865;48.776;9.280;2023-07-20T20:37:08;2.22;;;1.10;;
11618;SDS011;5865;48.776;9.280;2023-07-20T20:39:36;2.88;;;1.30;;
11618;SDS011;5865;48.776;9.280;2023-07-20T20:42:04;2.85;;;1.30;;
11618;SDS011;5865;48.776;9.280;2023-07-20T20:44:31;1.77;;;1.35;;
11618;SDS011;5865;48.776;9.280;2023-07-20T20:46:59;2.88;;;1.48;;
11618;SDS011;5865;48.776;9.280;2023-07-20T20:49:28;1.58;;;1.38;;
11618;SDS011;5865;48.776;9.280;2023-07-20T20:51:57;1.30;;;1.20;;
11618;SDS011;5865;48.776;9.280;2023-07-20T20:54:24;2.45;;;1.40;;
11618;SDS011;5865;48.776;9.280;2023-07-20T20:56:51;1.30;;;1.10;;
11618;SDS011;5865;48.776;9.280;2023-07-20T20:59:19;1.52;;;1.20;;
11618;SDS011;5865;48.776;9.280;2023-07-20T21:01:47;1.58;;;1.48;;
11618;SDS011;5865;48.776;9.280;2023-07-20T21:04:14;1.20;;;1.10;;
11618;SDS011;5865;48.776;9.280;2023-07-20T21:06:41;1.90;;;1.50;;
11618;SDS011;5865;48.776;9.280;2023-07-20T21:09:10;1.88;;;1.30;;
11618;SDS011;5865;48.776;9.280;2023-07-20T21:11:37;1.30;;;1.20;;
11618;SDS011;5865;48.776;9.280;2023-07-20T21:14:04;1.35;;;1.25;;
11618;SDS011;5865;48.776;9.280;2023-07-20T21:16:31;2.28;;;1.40;;
11618;SDS011;5865;48.776;9.280;2023-07-20T21:18:59;1.50;;;1.30;;
11618;SDS011;5865;48.776;9.280;2023-07-20T21:21:25;1.30;;;1.20;;
11618;SDS011;5865;48.776;9.280;2023-07-20T21:23:53;1.98;;;1.60;;
11618;SDS011;5865;48.776;9.280;2023-07-20T21:26:21;2.10;;;1.45;;
11618;SDS011;5865;48.776;9.280;2023-07-20T21:28:49;1.30;;;1.20;;
11618;SDS011;5865;48.776;9.280;2023-07-20T21:31:16;1.42;;;1.23;;
11618;SDS011;5865;48.776;9.280;2023-07-20T21:33:44;3.00;;;1.20;;
11618;SDS011;5865;48.776;9.280;2023-07-20T21:36:11;1.25;;;1.13;;
11618;SDS011;5865;48.776;9.280;2023-07-20T21:38:38;2.42;;;1.15;;
11618;SDS011;5865;48.776;9.280;2023-07-20T21:41:06;1.25;;;1.15;;
11618;SDS011;5865;48.776;9.280;2023-07-20T21:43:35;1.30;;;1.17;;
11618;SDS011;5865;48.776;9.280;2023-07-20T21:46:03;1.77;;;1.33;;
11618;SDS011;5865;48.776;9.280;2023-07-20T21:48:30;3.15;;;1.38;;
11618;SDS011;5865;48.776;9.280;2023-07-20T21:50:57;2.03;;;1.73;;
11618;SDS011;5865;48.776;9.280;2023-07-20T21:53:24;1.60;;;1.45;;
11618;SDS011;5865;48.776;9.280;2023-07-20T21:55:51;1.30;;;1.20;;
11618;SDS011;5865;48.776;9.280;2023-07-20T21:58:18;1.92;;;1.15;;
11618;SDS011;5865;48.776;9.280;2023-07-20T22:00:47;1.38;;;1.27;;
11618;SDS011;5865;48.776;9.280;2023-07-20T22:03:18;1.58;;;1.20;;
11618;SDS011;5865;48.776;9.280;2023-07-20T22:08:27;1.20;;;1.10;;
11618;SDS011;5865;48.776;9.280;2023-07-20T22:10:55;1.25;;;1.15;;
11618;SDS011;5865;48.776;9.280;2023-07-20T22:13:22;1.85;;;1.33;;
11618;SDS011;5865;48.776;9.280;2023-07-20T22:15:51;1.20;;;1.10;;
11618;SDS011;5865;48.776;9.280;2023-07-20T22:18:17;1.40;;;1.30;;
11618;SDS011;5865;48.776;9.280;2023-07-20T22:20:45;1.65;;;1.40;;
11618;SDS011;5865;48.776;9.280;2023-07-20T22:23:13;1.77;;;1.40;;
11618;SDS011;5865;48.776;9.280;2023-07-20T22:25:40;1.52;;;1.35;;
11618;SDS011;5865;48.776;9.280;2023-07-20T22:28:07;3.58;;;2.25;;
11618;SDS011;5865;48.776;9.280;2023-07-20T22:30:34;1.50;;;1.40;;
11618;SDS011;5865;48.776;9.280;2023-07-20T22:33:04;1.50;;;1.40;;
11618;SDS011;5865;48.776;9.280;2023-07-20T22:35:31;1.40;;;1.20;;
11618;SDS011;5865;48.776;9.280;2023-07-20T22:37:58;3.08;;;1.30;;
11618;SDS011;5865;48.776;9.280;2023-07-20T22:40:26;1.50;;;1.35;;
11618;SDS011;5865;48.776;9.280;2023-07-20T22:42:54;1.63;;;1.40;;
11618;SDS011;5865;48.776;9.280;2023-07-20T22:45:21;1.52;;;1.20;;
11618;SDS011;5865;48.776;9.280;2023-07-20T22:47:48;1.58;;;1.25;;
11618;SDS011;5865;48.776;9.280;2023-07-20T22:50:17;1.77;;;1.35;;
11618;SDS011;5865;48.776;9.280;2023-07-20T22:52:44;1.40;;;1.23;;
11618;SDS011;5865;48.776;9.280;2023-07-20T22:55:11;1.60;;;1.40;;
11618;SDS011;5865;48.776;9.280;2023-07-20T22:57:39;1.52;;;1.20;;
11618;SDS011;5865;48.776;9.280;2023-07-20T23:00:06;2.33;;;1.20;;
11618;SDS011;5865;48.776;9.280;2023-07-20T23:02:40;2.08;;;1.30;;
11618;SDS011;5865;48.776;9.280;2023-07-20T23:05:08;1.40;;;1.30;;
11618;SDS011;5865;48.776;9.280;2023-07-20T23:07:40;1.98;;;1.30;;
11618;SDS011;5865;48.776;9.280;2023-07-20T23:10:07;2.17;;;1.30;;
11618;SDS011;5865;48.776;9.280;2023-07-20T23:12:35;1.20;;;1.10;;
11618;SDS011;5865;48.776;9.280;2023-07-20T23:15:02;1.30;;;1.10;;
11618;SDS011;5865;48.776;9.280;2023-07-20T23:17:30;2.28;;;1.30;;
11618;SDS011;5865;48.776;9.280;2023-07-20T23:19:58;1.42;;;1.23;;
11618;SDS011;5865;48.776;9.280;2023-07-20T23:22:26;1.48;;;1.38;;
11618;SDS011;5865;48.776;9.280;2023-07-20T23:24:55;2.25;;;1.48;;
11618;SDS011;5865;48.776;9.280;2023-07-20T23:27:22;2.22;;;1.40;;
11618;SDS011;5865;48.776;9.280;2023-07-20T23:29:49;1.40;;;1.30;;
11618;SDS011;5865;48.776;9.280;2023-07-20T23:32:16;2.25;;;1.48;;
11618;SDS011;5865;48.776;9.280;2023-07-20T23:34:43;2.05;;;1.40;;
11618;SDS011;5865;48.776;9.280;2023-07-20T23:37:10;2.28;;;1.40;;
11618;SDS011;5865;48.776;9.280;2023-07-20T23:39:37;1.25;;;1.15;;
11618;SDS011;5865;48.776;9.280;2023-07-20T23:42:05;1.67;;;1.40;;
11618;SDS011;5865;48.776;9.280;2023-07-20T23:44:33;1.50;;;1.30;;
11618;SDS011;5865;48.776;9.280;2023-07-20T23:47:00;1.63;;;1.45;;
11618;SDS011;5865;48.776;9.280;2023-07-20T23:49:27;1.70;;;1.33;;
11618;SDS011;5865;48.776;9.280;2023-07-20T23:51:54;3.67;;;1.25;;
11618;SDS011;5865;48.776;9.280;2023-07-20T23:54:21;2.10;;;1.40;;
11618;SDS011;5865;48.776;9.280;2023-07-20T23:56:48;1.67;;;1.40;;
11618;SDS011;5865;48.776;9.280;2023-07-20T23:59:16;1.50;;;1.23;;
